createdAt,value
2023-02-12T10:43:52.964Z,20.00
2023-02-12T10:46:23.772Z,13.87
2023-02-12T10:48:58.874Z,18.67
2023-02-12T10:52:09.556Z,14.60
2023-02-12T10:54:51.456Z,13.43
2023-02-12T10:57:29.771Z,14.43
2023-02-12T11:00:36.654Z,10.53
2023-02-12T11:03:14.159Z,16.87
2023-02-12T11:05:45.885Z,12.63
2023-02-12T11:08:56.619Z,12.50
2023-02-12T11:11:50.307Z,13.55
2023-02-12T11:14:21.395Z,14.43
2023-02-12T11:17:01.595Z,13.73
2023-02-12T11:19:49.571Z,13.60
2023-02-12T11:23:14.862Z,11.85
2023-02-12T11:26:08.191Z,12.50
2023-02-12T11:29:24.568Z,11.77
2023-02-12T11:32:24.097Z,13.27
2023-02-12T11:35:33.688Z,13.00
2023-02-12T11:38:04.364Z,11.10
2023-02-12T11:40:37.914Z,10.43
2023-02-12T11:46:33.854Z,12.90
2023-02-12T11:49:38.512Z,9.05
2023-02-12T11:52:22.250Z,10.38
2023-02-12T11:54:56.566Z,10.07
2023-02-12T11:57:50.539Z,10.85
2023-02-12T12:00:42.933Z,12.10
2023-02-12T12:03:41.139Z,13.20
2023-02-12T12:06:47.646Z,11.00
2023-02-12T12:10:16.221Z,10.80
2023-02-12T12:12:53.030Z,14.85
2023-02-12T12:15:51.487Z,9.20
2023-02-12T12:19:04.921Z,9.93
2023-02-12T12:22:10.034Z,11.02
2023-02-12T12:25:01.665Z,11.82
2023-02-12T12:28:16.743Z,9.95
2023-02-12T12:31:06.741Z,9.80
2023-02-12T12:34:36.690Z,10.43
2023-02-12T12:37:18.321Z,11.48
2023-02-12T12:40:34.425Z,9.27
2023-02-12T12:43:10.871Z,12.15
2023-02-12T12:47:03.001Z,11.43
2023-02-12T12:49:46.858Z,12.55
2023-02-12T12:53:17.891Z,9.20
2023-02-12T12:56:48.571Z,11.57
2023-02-12T12:59:48.297Z,9.85
2023-02-12T13:03:14.218Z,10.93
2023-02-12T13:06:30.602Z,10.30
2023-02-12T13:09:48.177Z,12.20
2023-02-12T13:12:44.721Z,9.88
2023-02-12T13:16:06.862Z,10.48
2023-02-12T13:19:04.368Z,11.73
2023-02-12T13:21:58.913Z,9.90
2023-02-12T13:24:57.219Z,10.65
2023-02-12T13:27:43.792Z,9.50
2023-02-12T13:30:16.955Z,11.68
2023-02-12T13:33:22.896Z,10.95
2023-02-12T13:36:38.438Z,7.90
2023-02-12T13:39:34.393Z,9.23
2023-02-12T13:42:08.328Z,6.90
2023-02-12T13:45:31.652Z,8.40
2023-02-12T13:48:29.342Z,8.07
2023-02-12T13:51:24.679Z,9.38
2023-02-12T13:54:21.135Z,8.02
2023-02-12T13:57:17.820Z,8.85
2023-02-12T14:00:56.078Z,6.63
2023-02-12T14:03:47.356Z,7.55
2023-02-12T14:06:24.945Z,6.50
2023-02-12T14:09:28.006Z,9.25
2023-02-12T14:11:59.769Z,9.88
2023-02-12T14:14:42.954Z,6.40
2023-02-12T14:18:06.973Z,9.63
2023-02-12T14:20:50.479Z,8.18
2023-02-12T14:23:37.422Z,13.52
2023-02-12T14:26:36.904Z,9.80
2023-02-12T14:34:16.634Z,4.25
2023-02-12T14:37:51.558Z,5.60
2023-02-12T14:42:46.090Z,7.45
2023-02-12T14:45:48.749Z,4.65
2023-02-12T14:49:16.609Z,8.20
2023-02-12T14:52:19.155Z,5.88
2023-02-12T14:55:30.003Z,7.65
2023-02-12T14:58:36.132Z,9.70
2023-02-12T15:06:17.319Z,8.40
2023-02-12T15:09:27.554Z,7.97
2023-02-12T15:12:43.052Z,8.60
2023-02-12T15:19:12.809Z,8.77
2023-02-12T15:21:48.948Z,3.97
2023-02-12T15:24:44.556Z,8.45
2023-02-12T15:28:48.722Z,6.47
2023-02-12T15:32:00.450Z,4.23
2023-02-12T16:05:05.463Z,8.05
2023-02-12T16:10:36.079Z,5.03
2023-02-12T16:13:06.133Z,7.33
2023-02-12T16:15:54.919Z,6.20
2023-02-12T16:18:35.906Z,8.40
2023-02-12T16:21:26.181Z,5.20
2023-02-12T16:23:54.562Z,5.30
2023-02-12T16:26:28.555Z,5.27
2023-02-12T16:28:59.526Z,5.07
2023-02-12T16:31:35.212Z,5.33
2023-02-12T16:34:07.253Z,7.67
2023-02-12T16:36:48.870Z,4.95
2023-02-12T16:39:48.393Z,8.17
2023-02-12T16:42:19.172Z,5.70
2023-02-12T16:44:51.745Z,9.73
2023-02-12T16:47:23.157Z,8.03
2023-02-12T16:50:01.017Z,6.47
2023-02-12T16:52:41.263Z,5.20
2023-02-12T16:55:16.984Z,7.03
2023-02-12T16:57:45.180Z,10.23
2023-02-12T17:00:17.505Z,6.28
2023-02-12T17:02:47.100Z,7.37
2023-02-12T17:05:27.193Z,8.65
2023-02-12T17:07:58.885Z,6.22
2023-02-12T17:10:26.659Z,6.73
2023-02-12T17:13:00.983Z,8.37
2023-02-12T17:15:56.171Z,8.97
2023-02-12T17:18:51.072Z,7.40
2023-02-12T17:21:25.723Z,5.90
2023-02-12T17:24:17.383Z,8.70
2023-02-12T17:26:45.338Z,7.47
2023-02-12T17:29:19.339Z,8.98
2023-02-12T17:31:56.178Z,8.20
2023-02-12T17:34:30.198Z,10.30
2023-02-12T17:37:01.765Z,8.07
2023-02-12T17:39:33.636Z,5.70
2023-02-12T17:42:07.591Z,8.30
2023-02-12T17:44:35.316Z,10.40
2023-02-12T17:47:05.397Z,7.77
2023-02-12T17:49:42.801Z,10.67
2023-02-12T17:52:26.272Z,8.57
2023-02-12T17:54:55.907Z,9.18
2023-02-12T17:57:28.042Z,9.60
2023-02-12T17:59:58.945Z,9.30
2023-02-12T18:02:30.358Z,6.80
2023-02-12T18:04:58.196Z,11.13
2023-02-12T18:07:25.882Z,8.40
2023-02-12T18:10:01.126Z,11.97
2023-02-12T18:15:55.875Z,7.53
2023-02-12T18:18:41.419Z,8.68
2023-02-12T18:21:36.096Z,10.50
2023-02-12T18:24:17.012Z,9.02
2023-02-12T18:26:48.407Z,14.70
2023-02-12T18:30:24.336Z,9.77
2023-02-12T18:32:42.514Z,10.82
2023-02-12T18:35:21.061Z,11.93
2023-02-12T18:37:57.222Z,11.23
2023-02-12T18:40:33.171Z,11.82
2023-02-12T18:44:05.839Z,7.75
2023-02-12T18:47:01.157Z,7.40
2023-02-12T18:49:51.377Z,8.73
2023-02-12T18:52:25.641Z,14.02
2023-02-12T18:54:56.353Z,11.20
2023-02-12T18:57:27.090Z,10.18
2023-02-12T19:00:44.968Z,12.93
2023-02-12T19:04:13.092Z,13.48
2023-02-12T19:06:56.442Z,14.10
2023-02-12T19:09:29.009Z,14.77
2023-02-12T19:13:33.669Z,13.82
2023-02-12T19:19:12.866Z,17.52
2023-02-12T19:21:53.249Z,17.90
2023-02-12T19:24:21.449Z,18.35
2023-02-12T19:26:53.102Z,19.70
2023-02-12T19:29:29.018Z,20.30
2023-02-12T19:32:15.162Z,20.10
2023-02-12T19:34:52.665Z,23.63
2023-02-12T19:37:27.985Z,20.17
2023-02-12T19:40:08.244Z,23.80
2023-02-12T19:42:35.962Z,26.67
2023-02-12T19:45:03.953Z,25.63
2023-02-12T19:47:32.253Z,23.30
2023-02-12T19:50:02.262Z,25.52
2023-02-12T19:52:30.294Z,25.97
2023-02-12T19:55:00.807Z,28.50
2023-02-12T19:57:33.478Z,26.93
2023-02-12T20:00:02.886Z,27.50
2023-02-12T20:02:34.560Z,28.73
2023-02-12T20:05:07.186Z,25.00
2023-02-12T20:07:38.847Z,27.73
2023-02-12T20:10:11.409Z,32.63
2023-02-12T20:12:42.104Z,28.60
2023-02-12T20:15:31.551Z,27.20
2023-02-12T20:18:09.483Z,34.90
2023-02-12T20:20:47.739Z,28.03
2023-02-12T20:23:20.467Z,31.97
2023-02-12T20:25:48.506Z,40.37
2023-02-12T20:28:19.195Z,31.13
2023-02-12T20:30:47.888Z,61.50
2023-02-12T20:33:17.209Z,80.33
2023-02-12T20:35:58.280Z,61.40
2023-02-12T20:38:34.762Z,43.20
2023-02-12T20:41:23.881Z,38.50
2023-02-12T20:43:51.953Z,33.67
2023-02-12T20:46:25.566Z,37.17
2023-02-12T20:48:55.689Z,35.80
2023-02-12T20:51:33.702Z,34.33
2023-02-12T20:54:04.662Z,37.77
2023-02-12T20:56:45.320Z,40.33
2023-02-12T20:59:18.942Z,36.40
2023-02-12T21:01:54.984Z,39.70
2023-02-12T21:04:26.785Z,39.37
2023-02-12T21:06:57.505Z,39.57
2023-02-12T21:09:28.007Z,41.63
2023-02-12T21:11:58.601Z,37.87
2023-02-12T21:14:26.827Z,47.83
2023-02-12T21:16:56.537Z,45.27
2023-02-12T21:19:37.018Z,41.77
2023-02-12T21:22:05.154Z,49.43
2023-02-12T21:24:34.200Z,46.07
2023-02-12T21:27:04.932Z,48.93
2023-02-12T21:29:42.816Z,48.63
2023-02-12T21:32:17.425Z,45.13
2023-02-12T21:34:47.538Z,40.53
2023-02-12T21:37:27.054Z,44.77
2023-02-12T21:39:55.043Z,47.80
2023-02-12T21:42:25.344Z,40.30
2023-02-12T21:44:55.897Z,46.57
2023-02-12T21:47:23.845Z,43.50
2023-02-12T21:49:56.427Z,36.83
2023-02-12T21:52:24.413Z,41.00
2023-02-12T21:55:04.191Z,42.00
2023-02-12T21:57:33.805Z,44.17
2023-02-12T22:00:10.831Z,50.13
2023-02-12T22:02:41.212Z,41.00
2023-02-12T22:05:12.489Z,45.47
2023-02-12T22:07:58.943Z,43.00
2023-02-12T22:10:27.687Z,44.37
2023-02-12T22:13:02.889Z,48.23
2023-02-12T22:15:34.036Z,43.43
2023-02-12T22:18:06.706Z,41.97
2023-02-12T22:20:45.224Z,47.37
2023-02-12T22:23:18.094Z,41.33
2023-02-12T22:25:46.180Z,43.20
2023-02-12T22:28:17.013Z,39.73
2023-02-12T22:30:46.980Z,38.50
2023-02-12T22:33:21.709Z,43.17
2023-02-12T22:35:49.774Z,45.10
2023-02-12T22:38:17.634Z,37.37
2023-02-12T22:40:45.632Z,43.87
2023-02-12T22:43:18.302Z,45.17
2023-02-12T22:45:46.443Z,41.07
2023-02-12T22:48:16.875Z,42.90
2023-02-12T22:50:47.917Z,38.23
2023-02-12T22:53:18.258Z,39.97
2023-02-12T22:55:50.469Z,36.33
2023-02-12T22:58:25.869Z,36.20
2023-02-12T23:00:57.820Z,31.90
2023-02-12T23:03:30.362Z,30.13
2023-02-12T23:06:04.560Z,30.50
2023-02-12T23:08:41.512Z,28.13
2023-02-12T23:11:34.444Z,32.90
2023-02-12T23:14:21.881Z,27.63
2023-02-12T23:17:02.944Z,29.57
2023-02-12T23:19:38.838Z,26.70
2023-02-12T23:22:16.877Z,30.50
2023-02-12T23:24:44.677Z,28.57
2023-02-12T23:27:16.129Z,30.67
2023-02-12T23:29:44.168Z,25.80
2023-02-12T23:32:14.550Z,26.03
2023-02-12T23:34:44.890Z,25.57
2023-02-12T23:37:27.520Z,25.00
2023-02-12T23:40:00.618Z,24.93
2023-02-12T23:42:48.994Z,22.47
2023-02-12T23:45:37.234Z,23.27
2023-02-12T23:48:06.214Z,21.83
2023-02-12T23:50:59.354Z,24.80
2023-02-12T23:53:34.792Z,25.93
2023-02-12T23:56:13.914Z,20.90
2023-02-12T23:59:05.792Z,26.30
